KHWO/HWO METAR and TAF weather

Enter ICAO airport designator
Station Type Date Time Source
KHWO METAR 2021/09/23 17:53 UTC NOAA

KHWO 231753Z 17004KT 10SM FEW041 BKN055 31/22 A2989 RMK AO2 LTG DSNT NW RAB32E49 SLP122 P0000 60000 T03110222 10317 20239 58014


Station Type Date Time Source
KHWO Decoded METAR 2021/09/23 17:53 UTC NOAA

HOLLYWOOD NORTH PERRY AIRPORT , FL, United States (KHWO) 26-00N 080-14W 2M
Sep 23, 2021 - 01:53 PM EDT / 2021.09.23 1753 UTC
Wind: from the S (170 degrees) at 5 MPH (4 KT):0
Visibility: 10 mile(s):0
Sky conditions: mostly cloudy
Weather: Lightning observed
Precipitation last hour: A trace
Temperature: 88.0 F (31.1 C)
Heat index: 94.6 F (34.8 C):1
Dew Point: 72.0 F (22.2 C)
Relative Humidity: 59%
Pressure (altimeter): 29.89 in. Hg (1012 hPa)
Pressure tendency: 0.04 inches (1.4 hPa) lower than three hours ago
ob: KHWO 231753Z 17004KT 10SM FEW041 BKN055 31/22 A2989 RMK AO2 LTG DSNT NW RAB32E49 SLP122 P0000 60000 T03110222 10317 20239 58014
cycle: 18

Station Type Date Time Source
KHWO TAF 2020/02/03 18:20 UTC NOAA

TAF KHWO 031720Z 0318/0418 12005KT P6SM SKC
FM040000 VRB03KT P6SM SKC
FM041500 14010KT P6SM FEW030

Example: see airport list